Time;durP1;ratioP1;P1;durP2;ratioP2;P2;SDS_P1;SDS_P2;PMS_P1;PMS_P2;Temp;Humidity;BMP_temperature;BMP_pressure;BME280_temperature;BME280_humidity;BME280_pressure;Samples;Min_cycle;Max_cycle;Signal;HPM_P1;HPM_P2
2023/12/09 00:00:49;;;;;;;3.00;1.60;;;20.60;41.20;;;;;;5038307;28;20095;-50
2023/12/09 00:03:15;;;;;;;4.80;1.98;;;20.60;40.50;;;;;;5056244;28;20020;-51
2023/12/09 00:05:40;;;;;;;5.13;1.73;;;20.60;40.50;;;;;;5056713;28;20047;-48
2023/12/09 00:08:06;;;;;;;3.42;1.70;;;20.60;40.50;;;;;;5055517;28;20128;-46
2023/12/09 00:10:32;;;;;;;3.72;1.75;;;20.60;40.50;;;;;;5056190;28;20021;-54
2023/12/09 00:12:58;;;;;;;3.33;1.75;;;20.60;40.50;;;;;;5056728;28;20074;-50
2023/12/09 00:15:24;;;;;;;3.20;1.70;;;20.60;40.50;;;;;;5056827;28;20036;-48
2023/12/09 00:17:51;;;;;;;5.47;1.77;;;20.60;40.60;;;;;;5020490;28;20025;-48
2023/12/09 00:20:17;;;;;;;3.25;1.40;;;20.60;40.60;;;;;;5056654;28;20057;-52
2023/12/09 00:22:42;;;;;;;3.65;1.58;;;20.60;40.60;;;;;;5055802;28;20068;-52
2023/12/09 00:25:09;;;;;;;3.50;1.67;;;20.50;40.50;;;;;;5038993;28;20048;-52
2023/12/09 00:27:35;;;;;;;3.70;1.45;;;20.50;40.60;;;;;;5055081;28;20045;-47
2023/12/09 00:30:01;;;;;;;4.38;1.70;;;20.50;40.60;;;;;;5056541;28;20025;-50
2023/12/09 00:32:27;;;;;;;4.43;1.60;;;20.50;40.60;;;;;;5056313;28;20028;-53
2023/12/09 00:34:52;;;;;;;3.38;1.50;;;20.50;40.60;;;;;;5056124;28;20439;-55
2023/12/09 00:37:18;;;;;;;4.03;1.60;;;20.50;40.60;;;;;;5056755;28;20029;-54
2023/12/09 00:39:44;;;;;;;4.90;1.80;;;20.50;40.60;;;;;;5056096;28;20067;-49
2023/12/09 00:42:10;;;;;;;3.33;1.48;;;20.50;40.60;;;;;;5055467;28;20352;-53
2023/12/09 00:44:36;;;;;;;3.05;1.55;;;20.50;40.60;;;;;;5051791;28;20467;-52
2023/12/09 00:47:02;;;;;;;3.65;1.80;;;20.50;40.60;;;;;;5048384;28;20119;-52
2023/12/09 00:49:28;;;;;;;3.88;1.60;;;20.50;40.70;;;;;;5046838;28;20371;-55
2023/12/09 00:51:54;;;;;;;3.15;1.70;;;20.50;40.70;;;;;;5045786;28;20037;-57
2023/12/09 00:54:20;;;;;;;2.78;1.42;;;20.50;40.70;;;;;;5045486;28;20033;-55
2023/12/09 00:56:46;;;;;;;4.18;1.52;;;20.40;40.70;;;;;;5045590;28;20029;-50
2023/12/09 00:59:11;;;;;;;3.80;1.42;;;20.40;40.70;;;;;;5047727;28;20334;-47
2023/12/09 01:01:37;;;;;;;3.97;1.60;;;20.50;40.70;;;;;;5025853;28;20413;-54
2023/12/09 01:04:06;;;;;;;4.38;1.83;;;20.40;40.70;;;;;;5046269;28;20028;-52
2023/12/09 01:06:31;;;;;;;4.88;1.50;;;20.50;40.80;;;;;;5042260;28;20018;-56
2023/12/09 01:08:57;;;;;;;4.25;1.88;;;20.40;40.70;;;;;;5046672;28;20029;-52
2023/12/09 01:11:25;;;;;;;3.30;1.58;;;20.40;40.70;;;;;;5043538;28;20105;-51
2023/12/09 01:13:51;;;;;;;4.45;1.88;;;20.50;40.80;;;;;;5024298;28;20368;-52
2023/12/09 01:16:17;;;;;;;4.90;1.60;;;20.40;40.70;;;;;;5043196;28;20055;-49
2023/12/09 01:18:43;;;;;;;4.05;1.70;;;20.40;40.70;;;;;;5043705;28;20104;-50
2023/12/09 01:21:09;;;;;;;4.30;1.73;;;20.40;40.70;;;;;;5026756;28;20037;-49
2023/12/09 01:23:35;;;;;;;3.58;1.65;;;20.40;40.70;;;;;;5044745;28;20090;-52
2023/12/09 01:26:00;;;;;;;5.05;1.67;;;20.40;40.70;;;;;;5045305;28;20053;-48
2023/12/09 01:28:26;;;;;;;5.63;1.40;;;20.40;40.80;;;;;;5044051;28;20047;-51
2023/12/09 01:30:52;;;;;;;3.65;1.88;;;20.40;40.80;;;;;;5043578;28;20112;-54
2023/12/09 01:33:18;;;;;;;4.88;1.88;;;20.40;40.80;;;;;;5043922;28;20046;-46
2023/12/09 01:35:44;;;;;;;4.50;1.73;;;20.40;40.80;;;;;;5028798;28;20029;-52
2023/12/09 01:38:10;;;;;;;5.85;1.92;;;20.40;40.80;;;;;;5044518;28;20465;-46
2023/12/09 01:40:35;;;;;;;4.47;1.77;;;20.30;40.70;;;;;;5046958;28;20014;-48
2023/12/09 01:43:01;;;;;;;4.72;1.67;;;20.30;40.70;;;;;;5043982;28;20029;-49
2023/12/09 01:45:27;;;;;;;3.58;1.70;;;20.40;40.80;;;;;;5034485;28;20585;-52
2023/12/09 01:47:53;;;;;;;4.70;1.90;;;20.40;40.80;;;;;;5034858;28;20033;-51
2023/12/09 01:50:19;;;;;;;3.78;1.85;;;20.40;40.80;;;;;;5034857;28;20025;-48
2023/12/09 01:52:46;;;;;;;3.53;1.73;;;20.30;40.70;;;;;;5017390;28;20033;-52
2023/12/09 01:55:12;;;;;;;3.88;1.48;;;20.30;40.70;;;;;;5034386;28;20041;-49
2023/12/09 01:57:39;;;;;;;3.70;1.67;;;20.30;40.70;;;;;;5032719;28;20384;-53
2023/12/09 02:00:06;;;;;;;4.53;1.73;;;20.30;40.70;;;;;;5034470;28;20025;-51
2023/12/09 02:02:31;;;;;;;3.05;1.42;;;20.30;40.70;;;;;;5016630;28;20040;-47
2023/12/09 02:04:59;;;;;;;3.55;1.63;;;20.30;40.70;;;;;;5035007;28;20029;-53
2023/12/09 02:07:25;;;;;;;3.75;1.48;;;20.30;40.70;;;;;;5014406;28;20040;-47
2023/12/09 02:09:51;;;;;;;4.50;1.70;;;20.30;40.70;;;;;;5034572;28;20029;-49
2023/12/09 02:12:22;;;;;;;4.35;1.77;;;20.30;40.70;;;;;;5015988;28;20017;-47
2023/12/09 02:15:18;;;;;;;4.07;1.85;;;20.30;40.70;;;;;;5034516;28;20495;-53
2023/12/09 02:17:48;;;;;;;3.55;1.67;;;20.30;40.80;;;;;;4999267;28;20037;-45
2023/12/09 02:20:14;;;;;;;4.05;1.75;;;20.30;40.80;;;;;;5032818;28;20049;-48
2023/12/09 02:22:40;;;;;;;3.65;1.73;;;20.30;40.70;;;;;;5033506;28;20099;-48
2023/12/09 02:25:07;;;;;;;3.85;1.65;;;20.30;40.70;;;;;;5033970;28;20421;-46
2023/12/09 02:27:57;;;;;;;3.50;1.50;;;20.30;40.80;;;;;;5033845;28;20104;-49
2023/12/09 02:30:41;;;;;;;3.70;1.75;;;20.30;41.30;;;;;;5032721;28;20033;-54
2023/12/09 02:33:10;;;;;;;4.25;1.60;;;20.30;40.80;;;;;;5031248;28;20387;-45
2023/12/09 02:35:40;;;;;;;4.80;1.50;;;20.30;40.70;;;;;;5034044;28;20029;-46
2023/12/09 02:38:07;;;;;;;3.00;1.50;;;20.30;40.70;;;;;;5033469;28;20057;-48
2023/12/09 02:40:34;;;;;;;4.55;1.48;;;20.20;40.70;;;;;;5034365;28;20503;-49
2023/12/09 02:43:00;;;;;;;3.30;1.27;;;20.30;40.80;;;;;;5033973;28;20022;-50
2023/12/09 02:45:26;;;;;;;4.18;1.70;;;20.20;40.70;;;;;;5014035;28;20048;-57
2023/12/09 02:47:52;;;;;;;4.80;1.80;;;20.30;40.80;;;;;;5015750;28;20030;-55
2023/12/09 02:50:18;;;;;;;4.93;1.83;;;20.20;40.70;;;;;;5033534;28;20048;-52
2023/12/09 02:52:43;;;;;;;5.20;2.17;;;20.30;40.80;;;;;;5033761;28;20032;-53
2023/12/09 02:55:10;;;;;;;6.90;2.40;;;20.20;40.70;;;;;;5034053;28;20101;-54
2023/12/09 02:57:36;;;;;;;6.45;2.47;;;20.20;40.70;;;;;;5034198;28;20025;-51
2023/12/09 03:00:03;;;;;;;7.25;2.70;;;20.20;40.70;;;;;;5015699;28;20026;-53
2023/12/09 03:02:29;;;;;;;6.97;3.17;;;20.20;40.70;;;;;;5015847;28;20541;-53
2023/12/09 03:04:55;;;;;;;7.57;2.75;;;20.20;40.70;;;;;;5031818;28;20025;-46
2023/12/09 03:07:21;;;;;;;9.38;3.50;;;20.20;40.70;;;;;;5033620;28;20045;-50
2023/12/09 03:09:47;;;;;;;10.38;4.07;;;20.20;40.70;;;;;;5033272;28;20029;-51
2023/12/09 03:12:13;;;;;;;12.88;5.13;;;20.20;40.70;;;;;;5034016;28;20041;-49
2023/12/09 03:14:38;;;;;;;15.90;6.47;;;20.20;40.60;;;;;;5032404;28;20072;-51
2023/12/09 03:17:05;;;;;;;17.15;6.70;;;20.20;40.60;;;;;;5033524;28;20083;-50
2023/12/09 03:19:31;;;;;;;14.73;6.38;;;20.10;40.60;;;;;;5033463;28;20045;-52
2023/12/09 03:21:58;;;;;;;12.88;6.45;;;20.20;40.60;;;;;;5033806;28;20091;-49
2023/12/09 03:24:24;;;;;;;15.27;6.80;;;20.10;40.60;;;;;;5032855;28;20030;-50
2023/12/09 03:26:53;;;;;;;13.27;5.85;;;20.20;40.60;;;;;;5015976;28;20120;-52
2023/12/09 03:29:20;;;;;;;13.15;5.63;;;20.20;40.60;;;;;;5033851;28;20021;-52
2023/12/09 03:31:46;;;;;;;12.20;4.65;;;20.10;40.60;;;;;;5033795;28;20609;-54
2023/12/09 03:34:13;;;;;;;10.18;5.10;;;20.20;40.60;;;;;;5033159;28;20083;-48
2023/12/09 03:36:39;;;;;;;10.20;4.38;;;20.20;40.60;;;;;;5033258;28;20033;-50
2023/12/09 03:39:06;;;;;;;7.00;3.53;;;20.20;40.60;;;;;;5033718;28;20029;-47
2023/12/09 03:41:32;;;;;;;9.60;3.92;;;20.10;40.50;;;;;;5033360;28;20630;-45
2023/12/09 03:43:58;;;;;;;6.57;3.10;;;20.10;40.50;;;;;;5019241;28;20139;-50
2023/12/09 03:46:24;;;;;;;7.15;2.80;;;20.10;40.50;;;;;;5035860;28;20112;-50
2023/12/09 03:48:50;;;;;;;5.72;2.42;;;20.10;40.50;;;;;;5053887;28;20428;-46
2023/12/09 03:51:16;;;;;;;5.25;2.20;;;20.10;40.50;;;;;;5052208;28;20154;-49
2023/12/09 03:53:43;;;;;;;5.78;2.33;;;20.10;40.50;;;;;;5053427;28;20128;-47
2023/12/09 03:56:13;;;;;;;5.35;2.33;;;20.10;40.50;;;;;;5050140;28;20028;-47
2023/12/09 03:58:39;;;;;;;4.80;2.20;;;20.10;40.50;;;;;;5035734;28;20032;-46
2023/12/09 04:01:05;;;;;;;4.75;2.08;;;20.10;40.50;;;;;;5052919;28;20441;-51
2023/12/09 04:03:31;;;;;;;4.97;2.10;;;20.10;40.50;;;;;;5057404;28;20032;-49
2023/12/09 04:05:57;;;;;;;4.25;1.85;;;20.10;40.50;;;;;;5056010;28;20025;-53
2023/12/09 04:08:23;;;;;;;5.88;1.92;;;20.10;40.50;;;;;;5038621;28;20102;-54
2023/12/09 04:10:49;;;;;;;6.63;2.13;;;20.10;40.50;;;;;;5055887;28;20025;-49
2023/12/09 04:13:15;;;;;;;4.60;1.98;;;20.10;40.50;;;;;;5056877;28;20032;-46
2023/12/09 04:15:41;;;;;;;5.45;1.90;;;20.10;40.50;;;;;;5056524;28;20045;-47
2023/12/09 04:18:07;;;;;;;3.90;1.45;;;20.10;40.50;;;;;;5056019;28;20044;-51
2023/12/09 04:20:33;;;;;;;4.65;1.83;;;20.10;40.50;;;;;;5056505;28;20037;-51
2023/12/09 04:22:59;;;;;;;3.83;1.77;;;20.10;40.50;;;;;;5036505;28;20120;-49
2023/12/09 04:25:25;;;;;;;3.75;1.50;;;20.10;40.50;;;;;;5056625;28;20123;-49
2023/12/09 04:27:51;;;;;;;4.32;1.70;;;20.10;40.60;;;;;;5038556;28;20040;-47
2023/12/09 04:30:18;;;;;;;3.72;1.67;;;20.10;40.50;;;;;;5055754;28;20025;-46
2023/12/09 04:32:43;;;;;;;4.78;1.83;;;20.10;40.50;;;;;;5056338;28;20029;-45
2023/12/09 04:35:10;;;;;;;3.90;1.50;;;20.00;40.50;;;;;;5056900;28;20025;-51
2023/12/09 04:37:36;;;;;;;4.05;1.73;;;20.10;40.50;;;;;;5056288;28;20440;-52
2023/12/09 04:40:04;;;;;;;5.13;2.00;;;20.00;40.50;;;;;;5056619;28;20028;-53
2023/12/09 04:42:31;;;;;;;5.10;1.80;;;20.00;40.50;;;;;;5053079;28;20021;-54
2023/12/09 04:44:57;;;;;;;3.47;1.70;;;20.00;40.50;;;;;;5038279;28;20115;-52
2023/12/09 04:47:23;;;;;;;3.13;1.23;;;20.00;40.50;;;;;;5056035;28;20021;-54
2023/12/09 04:49:48;;;;;;;4.43;1.83;;;20.10;40.50;;;;;;5056306;28;20040;-55
2023/12/09 04:52:14;;;;;;;3.35;1.50;;;20.00;40.50;;;;;;5037374;28;20056;-55
2023/12/09 04:54:41;;;;;;;5.05;1.73;;;20.00;40.50;;;;;;5056014;28;20047;-53
2023/12/09 04:57:06;;;;;;;3.75;1.60;;;20.00;40.50;;;;;;5055441;28;20035;-49
2023/12/09 04:59:32;;;;;;;4.72;1.80;;;20.00;40.70;;;;;;5037795;28;20096;-50
2023/12/09 05:01:58;;;;;;;4.70;1.67;;;20.00;40.50;;;;;;5055776;28;20059;-52
2023/12/09 05:04:24;;;;;;;3.65;1.60;;;20.00;40.50;;;;;;5056021;28;20032;-53
2023/12/09 05:06:50;;;;;;;3.38;1.45;;;20.00;40.50;;;;;;5055563;28;20183;-47
2023/12/09 05:09:18;;;;;;;3.95;1.50;;;20.00;41.10;;;;;;5037661;28;20037;-52
2023/12/09 05:11:44;;;;;;;3.67;1.50;;;20.00;40.50;;;;;;5037810;28;20017;-46
2023/12/09 05:14:10;;;;;;;4.10;1.77;;;20.00;40.50;;;;;;5053931;28;20037;-47
2023/12/09 05:16:36;;;;;;;4.20;1.40;;;20.00;40.50;;;;;;5055144;28;20029;-50
2023/12/09 05:19:03;;;;;;;4.25;1.45;;;20.00;40.50;;;;;;5055932;28;20476;-50
2023/12/09 05:21:29;;;;;;;3.38;1.83;;;20.00;40.40;;;;;;5055483;28;20120;-47
2023/12/09 05:23:55;;;;;;;5.00;1.95;;;20.00;40.50;;;;;;5054415;28;20178;-51
2023/12/09 05:26:26;;;;;;;3.13;1.25;;;20.00;40.40;;;;;;5055146;28;20028;-49
2023/12/09 05:28:55;;;;;;;4.35;1.63;;;20.00;40.40;;;;;;5055126;28;20056;-57
2023/12/09 05:31:22;;;;;;;3.53;1.30;;;20.00;40.40;;;;;;5053372;28;20453;-47
2023/12/09 05:33:48;;;;;;;2.38;1.00;;;20.00;40.40;;;;;;5054706;28;20128;-52
2023/12/09 05:36:14;;;;;;;4.80;1.20;;;19.90;40.40;;;;;;5054472;28;20495;-49
2023/12/09 05:38:43;;;;;;;5.95;1.67;;;20.00;40.40;;;;;;5037479;28;20460;-50
2023/12/09 05:41:09;;;;;;;4.43;1.63;;;20.00;40.40;;;;;;5055065;28;20070;-47
2023/12/09 05:43:36;;;;;;;3.30;1.20;;;20.00;40.40;;;;;;5053213;28;20134;-47
2023/12/09 05:46:03;;;;;;;5.18;1.70;;;20.00;40.40;;;;;;5043466;28;20025;-47
2023/12/09 05:48:28;;;;;;;2.72;1.23;;;20.00;40.40;;;;;;5039027;28;20025;-51
2023/12/09 05:50:54;;;;;;;2.53;1.30;;;19.90;40.30;;;;;;5044303;28;20472;-54
2023/12/09 05:53:21;;;;;;;4.18;1.45;;;19.90;40.30;;;;;;5042986;28;20037;-49
2023/12/09 05:55:47;;;;;;;3.85;1.63;;;19.90;40.20;;;;;;5043613;28;20038;-51
2023/12/09 05:58:13;;;;;;;3.63;1.33;;;19.90;40.20;;;;;;5043373;28;20036;-46
2023/12/09 06:00:39;;;;;;;3.55;1.55;;;19.90;40.20;;;;;;5045438;28;20022;-50
2023/12/09 06:03:05;;;;;;;3.85;1.30;;;19.90;40.20;;;;;;5028208;28;20020;-49
2023/12/09 06:05:31;;;;;;;3.75;1.45;;;19.90;40.20;;;;;;5027779;28;20119;-51
2023/12/09 06:07:57;;;;;;;3.85;1.38;;;19.90;40.20;;;;;;5041602;28;20027;-52
2023/12/09 06:10:23;;;;;;;4.35;1.50;;;19.90;40.10;;;;;;5046682;28;20112;-52
2023/12/09 06:12:48;;;;;;;4.18;1.58;;;19.90;40.10;;;;;;5024613;28;20412;-48
2023/12/09 06:15:14;;;;;;;3.42;1.40;;;19.90;40.10;;;;;;5044918;28;20060;-49
2023/12/09 06:17:40;;;;;;;2.75;1.20;;;19.90;40.10;;;;;;5039769;28;20029;-54
2023/12/09 06:20:08;;;;;;;3.58;1.23;;;19.90;40.10;;;;;;5043220;28;20035;-49
2023/12/09 06:22:34;;;;;;;5.35;1.33;;;19.90;40.10;;;;;;5042026;28;20033;-50
2023/12/09 06:25:00;;;;;;;3.28;1.40;;;19.90;40.10;;;;;;5047611;28;20021;-49
2023/12/09 06:27:25;;;;;;;3.65;1.38;;;19.80;40.10;;;;;;5034960;28;20110;-51
2023/12/09 06:29:52;;;;;;;5.68;1.52;;;19.80;40.10;;;;;;5048153;28;20105;-51
2023/12/09 06:32:18;;;;;;;3.80;1.38;;;19.90;40.10;;;;;;5028347;28;20041;-49
2023/12/09 06:34:44;;;;;;;2.95;1.10;;;19.90;40.20;;;;;;5048687;28;20025;-49
2023/12/09 06:37:10;;;;;;;3.45;1.33;;;19.90;40.30;;;;;;5025065;28;20372;-53
2023/12/09 06:39:36;;;;;;;3.05;1.05;;;19.90;40.30;;;;;;5024534;28;20501;-53
2023/12/09 06:42:02;;;;;;;3.97;1.23;;;19.80;40.20;;;;;;5021391;28;20361;-54
2023/12/09 06:44:28;;;;;;;1.95;1.00;;;19.90;40.30;;;;;;5044695;28;20063;-51
2023/12/09 06:46:54;;;;;;;3.30;1.20;;;19.80;40.20;;;;;;5017305;28;20025;-55
2023/12/09 06:49:20;;;;;;;3.85;1.23;;;19.80;40.20;;;;;;5045591;28;20029;-56
2023/12/09 06:51:48;;;;;;;3.08;1.00;;;19.80;40.20;;;;;;5049696;28;20026;-55
2023/12/09 06:54:14;;;;;;;4.22;1.30;;;19.80;40.20;;;;;;5035598;28;20396;-54
2023/12/09 06:56:40;;;;;;;4.20;1.48;;;19.80;40.30;;;;;;5034061;28;20033;-54
2023/12/09 06:59:06;;;;;;;3.50;1.13;;;19.80;40.30;;;;;;5042193;28;20451;-57
2023/12/09 07:01:31;;;;;;;4.68;1.10;;;19.80;40.20;;;;;;5034833;28;20095;-54
2023/12/09 07:03:57;;;;;;;4.05;1.23;;;19.80;40.30;;;;;;5045455;28;20037;-55
2023/12/09 07:06:25;;;;;;;4.03;1.70;;;19.80;40.30;;;;;;5043024;28;20031;-54
2023/12/09 07:08:52;;;;;;;2.25;1.15;;;19.80;40.30;;;;;;5034819;28;20116;-50
2023/12/09 07:11:19;;;;;;;2.75;1.00;;;19.80;40.20;;;;;;5047869;28;20028;-52
2023/12/09 07:13:45;;;;;;;2.00;0.82;;;19.80;40.20;;;;;;5037681;28;20124;-47
2023/12/09 07:16:13;;;;;;;2.17;0.98;;;19.80;40.20;;;;;;5044617;28;20081;-51
2023/12/09 07:18:43;;;;;;;2.65;1.23;;;19.80;40.20;;;;;;5035440;28;20022;-48
2023/12/09 07:21:09;;;;;;;2.45;1.20;;;19.80;40.20;;;;;;5049210;28;20103;-45
2023/12/09 07:23:36;;;;;;;3.42;1.23;;;19.80;40.30;;;;;;5040493;28;20029;-51
2023/12/09 07:26:02;;;;;;;3.30;1.20;;;19.80;40.20;;;;;;5043976;28;20031;-52
2023/12/09 07:28:31;;;;;;;2.85;1.08;;;19.80;40.20;;;;;;5051091;28;20087;-48
2023/12/09 07:30:57;;;;;;;4.53;1.30;;;19.80;40.20;;;;;;5042370;28;20021;-53
2023/12/09 07:33:23;;;;;;;2.58;1.00;;;19.80;40.20;;;;;;5049943;28;20060;-54
2023/12/09 07:35:49;;;;;;;2.80;1.20;;;19.80;40.20;;;;;;5045752;28;20021;-50
2023/12/09 07:38:15;;;;;;;3.08;1.40;;;19.80;40.20;;;;;;5038476;28;20444;-53
2023/12/09 07:40:41;;;;;;;4.10;1.25;;;19.80;40.20;;;;;;5028410;28;20036;-46
2023/12/09 07:43:08;;;;;;;2.60;1.10;;;19.80;40.10;;;;;;5043297;28;20496;-46
2023/12/09 07:45:34;;;;;;;2.88;1.02;;;19.80;40.20;;;;;;5052670;28;20107;-45
2023/12/09 07:48:01;;;;;;;5.00;1.27;;;19.80;40.10;;;;;;5040859;28;20108;-46
2023/12/09 07:50:26;;;;;;;2.67;1.17;;;19.80;40.10;;;;;;5039450;28;20029;-49
2023/12/09 07:52:52;;;;;;;3.42;1.10;;;19.80;40.10;;;;;;5054811;28;20442;-55
2023/12/09 07:55:18;;;;;;;3.70;1.10;;;19.80;40.10;;;;;;5055710;28;20036;-47
2023/12/09 07:57:44;;;;;;;4.60;1.50;;;19.80;40.10;;;;;;5022640;28;20034;-50
2023/12/09 08:00:12;;;;;;;4.00;1.30;;;19.80;40.10;;;;;;5033787;28;20435;-44
2023/12/09 08:02:37;;;;;;;3.13;0.93;;;19.80;40.10;;;;;;5049928;28;20043;-49
2023/12/09 08:05:06;;;;;;;3.83;1.38;;;19.80;40.10;;;;;;5055125;28;20021;-45
2023/12/09 08:07:31;;;;;;;2.45;1.05;;;19.80;40.10;;;;;;5053115;28;20128;-46
2023/12/09 08:09:57;;;;;;;3.53;1.30;;;19.80;40.10;;;;;;5041593;28;20097;-53
2023/12/09 08:12:23;;;;;;;3.50;1.20;;;19.80;40.10;;;;;;5040650;28;20029;-53
2023/12/09 08:14:49;;;;;;;3.40;1.38;;;19.70;40.00;;;;;;5025014;28;20132;-54
2023/12/09 08:17:16;;;;;;;2.78;1.27;;;19.80;40.10;;;;;;5048839;28;20025;-54
2023/12/09 08:19:42;;;;;;;2.92;1.30;;;19.70;40.00;;;;;;5042537;28;20017;-52
2023/12/09 08:22:08;;;;;;;3.70;1.27;;;19.80;40.10;;;;;;5053005;28;20116;-49
2023/12/09 08:24:34;;;;;;;2.92;1.27;;;19.80;40.10;;;;;;5055357;28;20159;-48
2023/12/09 08:27:00;;;;;;;2.30;0.90;;;19.80;40.10;;;;;;5051387;28;20013;-52
2023/12/09 08:29:25;;;;;;;5.82;1.20;;;19.80;40.20;;;;;;5051478;28;20029;-52
2023/12/09 08:31:51;;;;;;;3.20;1.30;;;19.80;40.20;;;;;;5034807;28;20029;-51
2023/12/09 08:34:18;;;;;;;2.97;1.20;;;19.80;40.20;;;;;;5047260;28;20400;-55
2023/12/09 08:36:44;;;;;;;3.45;1.38;;;19.80;40.20;;;;;;5037860;28;20045;-51
2023/12/09 08:39:10;;;;;;;3.45;1.27;;;19.90;40.20;;;;;;5054573;28;20028;-50
2023/12/09 08:41:37;;;;;;;2.60;1.40;;;19.90;40.20;;;;;;5039374;28;20508;-53
2023/12/09 08:44:03;;;;;;;3.80;1.20;;;20.00;40.10;;;;;;5030309;28;20052;-55
2023/12/09 08:46:30;;;;;;;3.67;1.10;;;20.10;40.10;;;;;;5036902;28;20026;-46
2023/12/09 08:48:56;;;;;;;4.22;1.23;;;20.10;40.00;;;;;;5043522;28;20416;-50
2023/12/09 08:51:22;;;;;;;3.72;1.10;;;20.20;40.00;;;;;;5039096;28;20025;-47
2023/12/09 08:53:49;;;;;;;3.00;0.98;;;20.30;39.90;;;;;;5045777;28;20033;-53
2023/12/09 08:56:15;;;;;;;2.88;1.00;;;20.40;39.80;;;;;;5051360;28;20421;-55
2023/12/09 08:58:41;;;;;;;3.65;1.27;;;20.40;40.40;;;;;;5037089;28;20031;-56
2023/12/09 09:01:11;;;;;;;3.63;1.05;;;20.50;39.70;;;;;;5036693;28;20411;-57
2023/12/09 09:03:37;;;;;;;5.28;1.50;;;20.60;39.60;;;;;;5025965;28;20032;-47
2023/12/09 09:06:03;;;;;;;2.65;1.23;;;20.70;39.50;;;;;;5036778;28;20037;-48
2023/12/09 09:08:29;;;;;;;2.42;1.30;;;20.80;39.60;;;;;;5040989;28;20036;-49
2023/12/09 09:10:55;;;;;;;5.93;1.30;;;20.80;39.60;;;;;;5037761;28;20022;-49
2023/12/09 09:13:21;;;;;;;5.20;1.20;;;21.00;39.70;;;;;;5040146;28;20041;-52
2023/12/09 09:15:47;;;;;;;2.92;1.20;;;21.00;39.60;;;;;;5054090;28;20021;-53
2023/12/09 09:18:13;;;;;;;2.50;1.13;;;21.10;40.20;;;;;;5049282;28;20079;-48
2023/12/09 09:20:42;;;;;;;3.45;1.35;;;21.20;39.50;;;;;;5036344;28;20040;-49
2023/12/09 09:23:09;;;;;;;5.43;1.52;;;21.20;39.40;;;;;;5046795;28;20426;-51
2023/12/09 09:25:35;;;;;;;2.42;1.02;;;21.30;39.30;;;;;;5050844;28;20090;-52
2023/12/09 09:28:02;;;;;;;2.75;1.08;;;21.40;39.20;;;;;;5047900;28;20040;-51
2023/12/09 09:30:29;;;;;;;2.63;0.88;;;21.40;39.10;;;;;;5052545;28;20033;-49
2023/12/09 09:32:55;;;;;;;3.92;0.90;;;21.50;39.00;;;;;;5047102;28;20021;-50
2023/12/09 09:35:21;;;;;;;2.72;1.08;;;21.50;38.90;;;;;;5050090;28;20035;-46
2023/12/09 09:37:47;;;;;;;3.47;1.13;;;21.60;38.90;;;;;;5054290;28;20021;-50
2023/12/09 09:40:14;;;;;;;3.08;1.30;;;21.60;38.80;;;;;;5050019;28;20061;-50
2023/12/09 09:42:47;;;;;;;2.65;1.00;;;21.70;38.70;;;;;;5049602;28;20056;-49
2023/12/09 09:45:23;;;;;;;3.80;1.58;;;21.70;38.60;;;;;;5038464;28;20111;-52
2023/12/09 09:47:51;;;;;;;1.52;0.80;;;21.70;38.60;;;;;;5017357;28;20087;-45
2023/12/09 09:50:23;;;;;;;2.05;0.90;;;21.70;38.50;;;;;;5034761;28;20120;-49
2023/12/09 09:52:52;;;;;;;3.42;1.08;;;21.70;38.50;;;;;;5034335;28;20061;-49
2023/12/09 09:55:22;;;;;;;2.38;1.10;;;21.70;38.40;;;;;;5034783;28;20056;-44
2023/12/09 09:57:49;;;;;;;3.85;1.10;;;21.70;38.40;;;;;;5034764;28;20360;-54
2023/12/09 10:00:16;;;;;;;2.47;0.93;;;21.70;38.40;;;;;;5034564;28;20025;-55
2023/12/09 10:02:44;;;;;;;3.45;1.10;;;21.70;38.30;;;;;;5034488;28;20021;-52
2023/12/09 10:05:16;;;;;;;3.67;1.13;;;21.70;38.30;;;;;;5032234;28;20021;-52
2023/12/09 10:07:42;;;;;;;2.13;1.10;;;21.70;38.20;;;;;;5033372;28;20112;-53
2023/12/09 10:10:09;;;;;;;2.97;1.10;;;21.70;38.20;;;;;;5034575;28;20060;-50
2023/12/09 10:12:36;;;;;;;2.03;1.00;;;21.70;38.20;;;;;;5034865;28;20032;-53
2023/12/09 10:15:03;;;;;;;1.48;0.73;;;21.70;38.20;;;;;;5034585;28;20037;-52
2023/12/09 10:17:30;;;;;;;2.10;0.90;;;21.70;38.20;;;;;;5034036;28;20033;-49
2023/12/09 10:19:57;;;;;;;2.92;0.90;;;21.70;38.20;;;;;;5033208;28;20116;-50
2023/12/09 10:22:28;;;;;;;2.45;1.23;;;21.70;38.20;;;;;;5034269;28;20099;-52
2023/12/09 10:24:54;;;;;;;2.67;1.17;;;21.70;38.20;;;;;;5034468;28;20030;-55
2023/12/09 10:27:24;;;;;;;3.38;1.00;;;21.60;38.20;;;;;;5034106;28;20037;-55
2023/12/09 10:29:55;;;;;;;2.67;1.00;;;21.60;38.20;;;;;;5034710;28;20037;-48
2023/12/09 10:32:22;;;;;;;2.97;1.25;;;21.60;38.20;;;;;;5033811;28;20029;-47
2023/12/09 10:34:49;;;;;;;2.58;1.00;;;21.60;38.30;;;;;;5016236;28;20045;-51
2023/12/09 10:37:18;;;;;;;2.85;1.13;;;21.60;38.40;;;;;;5033542;28;20494;-50
2023/12/09 10:39:48;;;;;;;2.05;0.80;;;21.60;38.40;;;;;;5034115;28;20025;-49
2023/12/09 10:42:14;;;;;;;2.40;0.98;;;21.60;38.50;;;;;;5034266;28;20045;-49
2023/12/09 10:44:41;;;;;;;2.42;1.10;;;21.60;38.60;;;;;;5044537;28;20040;-54
2023/12/09 10:47:07;;;;;;;2.78;0.90;;;21.60;38.60;;;;;;5038263;28;20017;-50
2023/12/09 10:49:33;;;;;;;1.33;0.60;;;21.60;38.70;;;;;;5039992;28;20104;-48
2023/12/09 10:52:00;;;;;;;2.85;0.90;;;21.60;38.80;;;;;;5047564;28;20128;-46
2023/12/09 10:54:26;;;;;;;2.35;0.90;;;21.60;38.90;;;;;;5051553;28;20419;-52
2023/12/09 10:56:52;;;;;;;2.80;1.00;;;21.60;38.90;;;;;;5049710;28;20033;-55
2023/12/09 10:59:18;;;;;;;1.98;0.80;;;21.60;38.90;;;;;;5035006;28;20120;-53
2023/12/09 11:01:45;;;;;;;1.85;1.05;;;21.50;38.80;;;;;;5050838;28;20028;-56
2023/12/09 11:04:15;;;;;;;1.63;0.90;;;21.60;38.90;;;;;;5048256;28;20029;-54
2023/12/09 11:06:44;;;;;;;2.03;1.00;;;21.60;39.00;;;;;;5034488;28;20030;-64
2023/12/09 11:09:13;;;;;;;2.67;0.70;;;21.60;38.90;;;;;;5035422;28;20087;-57
2023/12/09 11:11:41;;;;;;;1.40;0.60;;;21.50;38.80;;;;;;5049340;28;20026;-56
2023/12/09 11:14:10;;;;;;;1.60;0.40;;;21.50;38.80;;;;;;5017513;28;20045;-53
2023/12/09 11:16:42;;;;;;;2.40;0.75;;;21.50;38.70;;;;;;5038744;28;20033;-56
2023/12/09 11:19:15;;;;;;;1.08;0.68;;;21.50;38.80;;;;;;5019892;28;20422;-53
2023/12/09 11:21:46;;;;;;;0.80;0.57;;;21.50;38.80;;;;;;5019687;28;20095;-49
2023/12/09 11:24:14;;;;;;;1.65;0.85;;;21.40;38.80;;;;;;5034311;28;20035;-55
2023/12/09 11:26:45;;;;;;;1.08;0.65;;;21.40;38.80;;;;;;5043538;28;20087;-58
2023/12/09 11:29:15;;;;;;;2.72;0.75;;;21.50;38.90;;;;;;5034445;28;20025;-51
2023/12/09 11:31:41;;;;;;;2.05;0.77;;;21.40;38.90;;;;;;5027648;28;20438;-52
2023/12/09 11:34:09;;;;;;;2.28;0.75;;;21.50;38.90;;;;;;5037663;28;20033;-52
2023/12/09 11:36:38;;;;;;;6.75;0.68;;;21.50;38.90;;;;;;5031605;28;20061;-51
2023/12/09 11:39:06;;;;;;;2.08;0.80;;;21.50;38.90;;;;;;5044451;28;20033;-47
2023/12/09 11:41:38;;;;;;;1.35;0.70;;;21.50;39.00;;;;;;5044606;28;20037;-44
2023/12/09 11:44:05;;;;;;;2.25;0.95;;;21.50;39.10;;;;;;5031882;28;20045;-54
2023/12/09 11:46:32;;;;;;;2.13;0.68;;;21.50;39.90;;;;;;5033676;28;20037;-56
2023/12/09 11:48:59;;;;;;;2.17;0.90;;;21.50;39.20;;;;;;5032919;28;20124;-56
2023/12/09 11:51:29;;;;;;;1.83;0.63;;;21.50;39.10;;;;;;5032872;28;20026;-56
2023/12/09 11:53:55;;;;;;;1.17;0.60;;;21.50;39.00;;;;;;5033456;28;20045;-57
2023/12/09 11:56:21;;;;;;;1.77;0.88;;;21.60;39.00;;;;;;5032561;28;20030;-53
2023/12/09 11:58:48;;;;;;;1.70;0.85;;;21.50;38.80;;;;;;5015548;28;20061;-53
2023/12/09 12:01:14;;;;;;;2.65;0.98;;;21.50;38.80;;;;;;5015419;28;20040;-59
2023/12/09 12:03:40;;;;;;;1.52;0.68;;;21.50;38.80;;;;;;5012570;28;20029;-57
2023/12/09 12:06:06;;;;;;;3.33;0.90;;;21.50;38.80;;;;;;5033053;28;20018;-55
2023/12/09 12:08:33;;;;;;;2.75;0.95;;;21.40;38.70;;;;;;5033005;28;20033;-55
2023/12/09 12:10:59;;;;;;;5.68;0.80;;;21.40;38.70;;;;;;5033083;28;20067;-55
2023/12/09 12:13:25;;;;;;;2.53;0.95;;;21.40;38.80;;;;;;5033234;28;20061;-54
2023/12/09 12:15:53;;;;;;;2.00;0.80;;;21.40;38.90;;;;;;5033099;28;20471;-58
2023/12/09 12:18:19;;;;;;;2.03;0.60;;;21.40;39.00;;;;;;5032432;28;20030;-55
2023/12/09 12:20:45;;;;;;;1.88;0.70;;;21.40;39.00;;;;;;5033206;28;20029;-56
2023/12/09 12:23:11;;;;;;;2.53;1.08;;;21.40;39.00;;;;;;5035309;28;20456;-57
2023/12/09 12:25:38;;;;;;;1.58;0.77;;;21.30;39.60;;;;;;5036622;28;20031;-57
2023/12/09 12:28:04;;;;;;;2.45;0.70;;;21.30;39.00;;;;;;5036624;28;20040;-55
2023/12/09 12:30:31;;;;;;;2.42;1.00;;;21.30;39.00;;;;;;5018905;28;20021;-56
2023/12/09 12:32:57;;;;;;;1.88;0.82;;;21.30;39.10;;;;;;5035984;28;20479;-57
2023/12/09 12:35:26;;;;;;;2.08;0.93;;;21.30;39.10;;;;;;5019130;28;20031;-58
2023/12/09 12:37:55;;;;;;;2.35;0.65;;;21.30;39.70;;;;;;5036189;28;20108;-56
2023/12/09 12:40:20;;;;;;;2.92;0.77;;;21.30;39.20;;;;;;5035261;28;20030;-50
2023/12/09 12:42:46;;;;;;;1.90;0.90;;;21.30;39.20;;;;;;5018719;28;20115;-56